sensor_id;sensor_type;location;lat;lon;timestamp;P1;durP1;ratioP1;P2;durP2;ratioP2
20443;SDS011;10381;53.730;10.010;2023-10-19T00:02:54;20.35;;;11.35;;
20443;SDS011;10381;53.730;10.010;2023-10-19T00:06:55;14.20;;;10.35;;
20443;SDS011;10381;53.730;10.010;2023-10-19T00:10:55;14.27;;;10.40;;
20443;SDS011;10381;53.730;10.010;2023-10-19T00:15:07;18.60;;;10.57;;
20443;SDS011;10381;53.730;10.010;2023-10-19T00:19:10;14.32;;;10.93;;
20443;SDS011;10381;53.730;10.010;2023-10-19T00:23:11;16.88;;;10.63;;
20443;SDS011;10381;53.730;10.010;2023-10-19T00:27:13;18.15;;;11.70;;
20443;SDS011;10381;53.730;10.010;2023-10-19T00:31:18;17.67;;;11.20;;
20443;SDS011;10381;53.730;10.010;2023-10-19T00:35:20;17.67;;;10.85;;
20443;SDS011;10381;53.730;10.010;2023-10-19T00:39:34;20.58;;;11.40;;
20443;SDS011;10381;53.730;10.010;2023-10-19T00:43:43;15.73;;;10.23;;
20443;SDS011;10381;53.730;10.010;2023-10-19T00:47:44;18.27;;;11.10;;
20443;SDS011;10381;53.730;10.010;2023-10-19T00:51:50;18.23;;;10.32;;
20443;SDS011;10381;53.730;10.010;2023-10-19T00:55:52;15.52;;;10.95;;
20443;SDS011;10381;53.730;10.010;2023-10-19T00:59:53;16.58;;;10.20;;
20443;SDS011;10381;53.730;10.010;2023-10-19T01:03:55;17.83;;;11.20;;
20443;SDS011;10381;53.730;10.010;2023-10-19T01:07:58;18.35;;;11.07;;
20443;SDS011;10381;53.730;10.010;2023-10-19T01:12:02;21.45;;;12.07;;
20443;SDS011;10381;53.730;10.010;2023-10-19T01:16:38;19.10;;;11.85;;
20443;SDS011;10381;53.730;10.010;2023-10-19T01:20:38;21.67;;;12.40;;
20443;SDS011;10381;53.730;10.010;2023-10-19T01:24:51;17.10;;;12.00;;
20443;SDS011;10381;53.730;10.010;2023-10-19T01:28:53;18.40;;;12.10;;
20443;SDS011;10381;53.730;10.010;2023-10-19T01:33:00;20.77;;;11.13;;
20443;SDS011;10381;53.730;10.010;2023-10-19T01:37:00;16.42;;;11.95;;
20443;SDS011;10381;53.730;10.010;2023-10-19T01:41:05;16.80;;;10.82;;
20443;SDS011;10381;53.730;10.010;2023-10-19T01:45:18;17.70;;;11.38;;
20443;SDS011;10381;53.730;10.010;2023-10-19T01:49:19;24.38;;;12.45;;
20443;SDS011;10381;53.730;10.010;2023-10-19T01:53:29;17.92;;;10.73;;
20443;SDS011;10381;53.730;10.010;2023-10-19T01:57:29;25.13;;;11.93;;
20443;SDS011;10381;53.730;10.010;2023-10-19T02:01:30;21.60;;;11.13;;
20443;SDS011;10381;53.730;10.010;2023-10-19T02:05:31;18.85;;;11.45;;
20443;SDS011;10381;53.730;10.010;2023-10-19T02:09:39;23.45;;;11.75;;
20443;SDS011;10381;53.730;10.010;2023-10-19T02:13:39;19.70;;;11.07;;
20443;SDS011;10381;53.730;10.010;2023-10-19T02:17:40;21.75;;;12.23;;
20443;SDS011;10381;53.730;10.010;2023-10-19T02:21:41;17.52;;;11.35;;
20443;SDS011;10381;53.730;10.010;2023-10-19T02:25:41;20.08;;;10.95;;
20443;SDS011;10381;53.730;10.010;2023-10-19T02:29:42;19.05;;;11.18;;
20443;SDS011;10381;53.730;10.010;2023-10-19T02:33:42;20.17;;;12.80;;
20443;SDS011;10381;53.730;10.010;2023-10-19T02:37:45;30.92;;;12.30;;
20443;SDS011;10381;53.730;10.010;2023-10-19T02:41:46;14.60;;;11.35;;
20443;SDS011;10381;53.730;10.010;2023-10-19T02:45:48;19.45;;;11.85;;
20443;SDS011;10381;53.730;10.010;2023-10-19T02:49:48;20.73;;;11.40;;
20443;SDS011;10381;53.730;10.010;2023-10-19T02:53:56;18.92;;;11.57;;
20443;SDS011;10381;53.730;10.010;2023-10-19T02:57:59;19.30;;;11.60;;
20443;SDS011;10381;53.730;10.010;2023-10-19T03:02:00;20.17;;;13.07;;
20443;SDS011;10381;53.730;10.010;2023-10-19T03:06:01;17.65;;;11.85;;
20443;SDS011;10381;53.730;10.010;2023-10-19T03:10:04;22.58;;;11.80;;
20443;SDS011;10381;53.730;10.010;2023-10-19T03:14:05;20.75;;;12.52;;
20443;SDS011;10381;53.730;10.010;2023-10-19T03:18:06;20.48;;;12.07;;
20443;SDS011;10381;53.730;10.010;2023-10-19T03:22:06;17.15;;;11.60;;
20443;SDS011;10381;53.730;10.010;2023-10-19T03:26:07;22.40;;;12.30;;
20443;SDS011;10381;53.730;10.010;2023-10-19T03:30:26;19.45;;;12.18;;
20443;SDS011;10381;53.730;10.010;2023-10-19T03:34:27;26.77;;;11.82;;
20443;SDS011;10381;53.730;10.010;2023-10-19T03:38:31;22.23;;;12.15;;
20443;SDS011;10381;53.730;10.010;2023-10-19T03:42:34;17.60;;;11.93;;
20443;SDS011;10381;53.730;10.010;2023-10-19T03:46:40;20.00;;;11.98;;
20443;SDS011;10381;53.730;10.010;2023-10-19T03:50:55;21.17;;;12.02;;
20443;SDS011;10381;53.730;10.010;2023-10-19T03:54:56;21.48;;;11.80;;
20443;SDS011;10381;53.730;10.010;2023-10-19T03:58:57;22.75;;;12.32;;
20443;SDS011;10381;53.730;10.010;2023-10-19T04:02:58;21.55;;;12.70;;
20443;SDS011;10381;53.730;10.010;2023-10-19T04:06:59;28.15;;;13.73;;
20443;SDS011;10381;53.730;10.010;2023-10-19T04:10:59;28.33;;;12.97;;
20443;SDS011;10381;53.730;10.010;2023-10-19T04:15:11;20.67;;;11.80;;
20443;SDS011;10381;53.730;10.010;2023-10-19T04:19:14;19.45;;;11.73;;
20443;SDS011;10381;53.730;10.010;2023-10-19T04:23:16;26.15;;;12.63;;
20443;SDS011;10381;53.730;10.010;2023-10-19T04:27:16;21.05;;;11.98;;
20443;SDS011;10381;53.730;10.010;2023-10-19T04:31:17;17.47;;;9.87;;
20443;SDS011;10381;53.730;10.010;2023-10-19T04:35:19;21.60;;;12.07;;
20443;SDS011;10381;53.730;10.010;2023-10-19T04:39:22;24.05;;;12.25;;
20443;SDS011;10381;53.730;10.010;2023-10-19T04:43:24;19.83;;;8.90;;
20443;SDS011;10381;53.730;10.010;2023-10-19T04:47:24;18.90;;;9.95;;
20443;SDS011;10381;53.730;10.010;2023-10-19T04:51:24;24.55;;;9.93;;
20443;SDS011;10381;53.730;10.010;2023-10-19T04:55:25;20.73;;;10.15;;
20443;SDS011;10381;53.730;10.010;2023-10-19T04:59:25;21.30;;;10.33;;
20443;SDS011;10381;53.730;10.010;2023-10-19T05:03:25;22.90;;;10.43;;
20443;SDS011;10381;53.730;10.010;2023-10-19T05:07:27;27.40;;;10.27;;
20443;SDS011;10381;53.730;10.010;2023-10-19T05:11:28;21.73;;;10.85;;
20443;SDS011;10381;53.730;10.010;2023-10-19T05:15:29;17.07;;;10.20;;
20443;SDS011;10381;53.730;10.010;2023-10-19T05:19:30;27.52;;;12.35;;
20443;SDS011;10381;53.730;10.010;2023-10-19T05:23:31;23.23;;;11.65;;
20443;SDS011;10381;53.730;10.010;2023-10-19T05:27:31;24.37;;;12.43;;
20443;SDS011;10381;53.730;10.010;2023-10-19T05:31:31;25.75;;;12.80;;
20443;SDS011;10381;53.730;10.010;2023-10-19T05:35:32;29.07;;;13.33;;
20443;SDS011;10381;53.730;10.010;2023-10-19T05:39:35;20.45;;;12.98;;
20443;SDS011;10381;53.730;10.010;2023-10-19T05:43:37;31.15;;;13.57;;
20443;SDS011;10381;53.730;10.010;2023-10-19T05:47:38;20.42;;;11.63;;
20443;SDS011;10381;53.730;10.010;2023-10-19T05:51:39;22.35;;;12.75;;
20443;SDS011;10381;53.730;10.010;2023-10-19T05:55:41;28.35;;;13.70;;
20443;SDS011;10381;53.730;10.010;2023-10-19T05:59:41;21.85;;;11.98;;
20443;SDS011;10381;53.730;10.010;2023-10-19T06:03:41;25.67;;;12.80;;
20443;SDS011;10381;53.730;10.010;2023-10-19T06:07:45;23.80;;;13.23;;
20443;SDS011;10381;53.730;10.010;2023-10-19T06:11:47;23.35;;;12.50;;
20443;SDS011;10381;53.730;10.010;2023-10-19T06:15:50;29.20;;;13.75;;
20443;SDS011;10381;53.730;10.010;2023-10-19T06:19:51;25.83;;;14.07;;
20443;SDS011;10381;53.730;10.010;2023-10-19T06:23:51;25.30;;;12.97;;
20443;SDS011;10381;53.730;10.010;2023-10-19T06:27:53;21.58;;;12.55;;
20443;SDS011;10381;53.730;10.010;2023-10-19T06:31:57;38.00;;;14.35;;
20443;SDS011;10381;53.730;10.010;2023-10-19T06:35:57;24.90;;;13.57;;
20443;SDS011;10381;53.730;10.010;2023-10-19T06:39:59;28.20;;;14.82;;
20443;SDS011;10381;53.730;10.010;2023-10-19T06:43:59;32.53;;;14.63;;
20443;SDS011;10381;53.730;10.010;2023-10-19T06:48:01;24.08;;;14.52;;
20443;SDS011;10381;53.730;10.010;2023-10-19T06:52:01;28.50;;;13.30;;
20443;SDS011;10381;53.730;10.010;2023-10-19T06:56:04;23.23;;;14.70;;
20443;SDS011;10381;53.730;10.010;2023-10-19T07:00:05;27.88;;;14.27;;
20443;SDS011;10381;53.730;10.010;2023-10-19T07:04:14;24.35;;;14.85;;
20443;SDS011;10381;53.730;10.010;2023-10-19T07:08:14;24.50;;;13.70;;
20443;SDS011;10381;53.730;10.010;2023-10-19T07:12:16;20.35;;;12.30;;
20443;SDS011;10381;53.730;10.010;2023-10-19T07:16:16;25.85;;;13.50;;
20443;SDS011;10381;53.730;10.010;2023-10-19T07:20:18;19.98;;;12.07;;
20443;SDS011;10381;53.730;10.010;2023-10-19T07:24:35;20.92;;;13.70;;
20443;SDS011;10381;53.730;10.010;2023-10-19T07:28:38;46.72;;;15.23;;
20443;SDS011;10381;53.730;10.010;2023-10-19T07:32:39;24.15;;;14.13;;
20443;SDS011;10381;53.730;10.010;2023-10-19T07:36:40;22.60;;;13.13;;
20443;SDS011;10381;53.730;10.010;2023-10-19T07:40:42;29.88;;;13.85;;
20443;SDS011;10381;53.730;10.010;2023-10-19T07:44:46;24.50;;;14.02;;
20443;SDS011;10381;53.730;10.010;2023-10-19T07:48:46;23.40;;;13.10;;
20443;SDS011;10381;53.730;10.010;2023-10-19T07:52:47;26.00;;;13.93;;
20443;SDS011;10381;53.730;10.010;2023-10-19T07:56:49;25.65;;;14.00;;
20443;SDS011;10381;53.730;10.010;2023-10-19T08:00:50;20.02;;;12.30;;
20443;SDS011;10381;53.730;10.010;2023-10-19T08:04:52;24.90;;;14.40;;
20443;SDS011;10381;53.730;10.010;2023-10-19T08:08:52;30.33;;;14.17;;
20443;SDS011;10381;53.730;10.010;2023-10-19T08:12:53;17.60;;;11.82;;
20443;SDS011;10381;53.730;10.010;2023-10-19T08:16:55;26.02;;;12.68;;
20443;SDS011;10381;53.730;10.010;2023-10-19T08:20:56;34.30;;;14.00;;
20443;SDS011;10381;53.730;10.010;2023-10-19T08:24:57;25.75;;;13.27;;
20443;SDS011;10381;53.730;10.010;2023-10-19T08:28:57;24.63;;;13.33;;
20443;SDS011;10381;53.730;10.010;2023-10-19T08:32:58;30.90;;;14.20;;
20443;SDS011;10381;53.730;10.010;2023-10-19T08:36:59;25.17;;;13.83;;
20443;SDS011;10381;53.730;10.010;2023-10-19T08:40:59;34.00;;;14.50;;
20443;SDS011;10381;53.730;10.010;2023-10-19T08:45:00;26.65;;;14.45;;
20443;SDS011;10381;53.730;10.010;2023-10-19T08:49:00;27.75;;;12.98;;
20443;SDS011;10381;53.730;10.010;2023-10-19T08:53:02;29.52;;;14.32;;
20443;SDS011;10381;53.730;10.010;2023-10-19T08:57:03;27.42;;;14.38;;
20443;SDS011;10381;53.730;10.010;2023-10-19T09:01:04;27.95;;;14.88;;
20443;SDS011;10381;53.730;10.010;2023-10-19T09:05:07;30.63;;;15.80;;
20443;SDS011;10381;53.730;10.010;2023-10-19T09:09:11;25.08;;;14.05;;
20443;SDS011;10381;53.730;10.010;2023-10-19T09:13:21;25.20;;;13.93;;
20443;SDS011;10381;53.730;10.010;2023-10-19T09:17:28;29.77;;;14.27;;
20443;SDS011;10381;53.730;10.010;2023-10-19T09:21:30;40.67;;;15.30;;
20443;SDS011;10381;53.730;10.010;2023-10-19T09:25:33;29.73;;;14.85;;
20443;SDS011;10381;53.730;10.010;2023-10-19T09:29:35;41.28;;;16.23;;
20443;SDS011;10381;53.730;10.010;2023-10-19T09:33:36;30.88;;;15.02;;
20443;SDS011;10381;53.730;10.010;2023-10-19T09:37:40;32.28;;;15.55;;
20443;SDS011;10381;53.730;10.010;2023-10-19T09:41:41;22.90;;;14.05;;
20443;SDS011;10381;53.730;10.010;2023-10-19T09:45:42;28.65;;;14.15;;
20443;SDS011;10381;53.730;10.010;2023-10-19T09:49:51;34.65;;;15.00;;
20443;SDS011;10381;53.730;10.010;2023-10-19T09:54:00;26.30;;;15.43;;
20443;SDS011;10381;53.730;10.010;2023-10-19T09:58:17;31.00;;;15.75;;
20443;SDS011;10381;53.730;10.010;2023-10-19T10:02:21;34.13;;;15.75;;
20443;SDS011;10381;53.730;10.010;2023-10-19T10:10:51;26.05;;;14.25;;
20443;SDS011;10381;53.730;10.010;2023-10-19T10:14:58;29.60;;;15.13;;
20443;SDS011;10381;53.730;10.010;2023-10-19T10:19:01;30.25;;;14.77;;
20443;SDS011;10381;53.730;10.010;2023-10-19T10:23:19;30.45;;;16.40;;
20443;SDS011;10381;53.730;10.010;2023-10-19T10:27:32;28.00;;;14.93;;
20443;SDS011;10381;53.730;10.010;2023-10-19T10:31:34;29.17;;;16.17;;
20443;SDS011;10381;53.730;10.010;2023-10-19T10:39:40;30.73;;;15.82;;
20443;SDS011;10381;53.730;10.010;2023-10-19T10:43:51;29.52;;;14.48;;
20443;SDS011;10381;53.730;10.010;2023-10-19T10:47:55;25.45;;;14.27;;
20443;SDS011;10381;53.730;10.010;2023-10-19T10:51:55;28.17;;;14.40;;
20443;SDS011;10381;53.730;10.010;2023-10-19T10:55:59;31.33;;;14.35;;
20443;SDS011;10381;53.730;10.010;2023-10-19T11:00:00;27.45;;;13.80;;
20443;SDS011;10381;53.730;10.010;2023-10-19T11:04:07;33.10;;;15.38;;
20443;SDS011;10381;53.730;10.010;2023-10-19T11:08:12;28.73;;;14.73;;
20443;SDS011;10381;53.730;10.010;2023-10-19T11:12:13;35.50;;;15.77;;
20443;SDS011;10381;53.730;10.010;2023-10-19T11:16:21;34.30;;;15.05;;
20443;SDS011;10381;53.730;10.010;2023-10-19T11:20:23;29.25;;;14.57;;
20443;SDS011;10381;53.730;10.010;2023-10-19T11:24:25;29.48;;;15.85;;
20443;SDS011;10381;53.730;10.010;2023-10-19T11:28:26;30.38;;;15.60;;
20443;SDS011;10381;53.730;10.010;2023-10-19T11:32:35;37.50;;;15.73;;
20443;SDS011;10381;53.730;10.010;2023-10-19T11:36:38;29.10;;;14.52;;
20443;SDS011;10381;53.730;10.010;2023-10-19T11:40:38;25.65;;;14.63;;
20443;SDS011;10381;53.730;10.010;2023-10-19T11:44:38;26.95;;;15.18;;
20443;SDS011;10381;53.730;10.010;2023-10-19T11:48:39;30.42;;;15.48;;
20443;SDS011;10381;53.730;10.010;2023-10-19T11:52:40;33.10;;;16.58;;
20443;SDS011;10381;53.730;10.010;2023-10-19T11:56:43;25.33;;;14.90;;
20443;SDS011;10381;53.730;10.010;2023-10-19T12:00:44;32.58;;;15.68;;
20443;SDS011;10381;53.730;10.010;2023-10-19T12:04:46;32.85;;;15.80;;
20443;SDS011;10381;53.730;10.010;2023-10-19T12:08:47;40.17;;;16.42;;
20443;SDS011;10381;53.730;10.010;2023-10-19T12:12:47;27.93;;;15.50;;
20443;SDS011;10381;53.730;10.010;2023-10-19T12:16:47;31.47;;;17.40;;
20443;SDS011;10381;53.730;10.010;2023-10-19T12:20:48;34.53;;;16.85;;
20443;SDS011;10381;53.730;10.010;2023-10-19T12:24:48;30.50;;;16.03;;
20443;SDS011;10381;53.730;10.010;2023-10-19T12:28:48;30.87;;;15.73;;
20443;SDS011;10381;53.730;10.010;2023-10-19T12:32:49;33.10;;;16.02;;
20443;SDS011;10381;53.730;10.010;2023-10-19T12:36:51;38.58;;;15.90;;
20443;SDS011;10381;53.730;10.010;2023-10-19T12:40:52;36.35;;;16.52;;
20443;SDS011;10381;53.730;10.010;2023-10-19T12:44:52;35.80;;;16.17;;
20443;SDS011;10381;53.730;10.010;2023-10-19T12:48:52;40.53;;;17.27;;
20443;SDS011;10381;53.730;10.010;2023-10-19T12:52:56;34.67;;;16.67;;
20443;SDS011;10381;53.730;10.010;2023-10-19T12:56:56;34.92;;;17.60;;
20443;SDS011;10381;53.730;10.010;2023-10-19T13:00:57;33.28;;;16.70;;
20443;SDS011;10381;53.730;10.010;2023-10-19T13:04:58;31.50;;;16.15;;
20443;SDS011;10381;53.730;10.010;2023-10-19T13:08:59;34.25;;;16.48;;
20443;SDS011;10381;53.730;10.010;2023-10-19T13:13:00;41.10;;;19.03;;
20443;SDS011;10381;53.730;10.010;2023-10-19T13:17:03;37.75;;;16.77;;
20443;SDS011;10381;53.730;10.010;2023-10-19T13:21:03;35.72;;;17.27;;
20443;SDS011;10381;53.730;10.010;2023-10-19T13:25:09;30.50;;;16.67;;
20443;SDS011;10381;53.730;10.010;2023-10-19T13:29:13;30.90;;;17.08;;
20443;SDS011;10381;53.730;10.010;2023-10-19T13:33:15;37.08;;;16.92;;
20443;SDS011;10381;53.730;10.010;2023-10-19T13:37:16;38.90;;;17.63;;
20443;SDS011;10381;53.730;10.010;2023-10-19T13:41:16;37.03;;;15.97;;
20443;SDS011;10381;53.730;10.010;2023-10-19T13:45:17;32.07;;;16.50;;
20443;SDS011;10381;53.730;10.010;2023-10-19T13:49:18;31.65;;;15.30;;
20443;SDS011;10381;53.730;10.010;2023-10-19T13:53:18;29.92;;;13.98;;
20443;SDS011;10381;53.730;10.010;2023-10-19T13:57:19;35.03;;;15.15;;
20443;SDS011;10381;53.730;10.010;2023-10-19T14:01:19;30.53;;;14.23;;
20443;SDS011;10381;53.730;10.010;2023-10-19T14:05:24;31.83;;;15.77;;
20443;SDS011;10381;53.730;10.010;2023-10-19T14:09:24;35.38;;;13.98;;
20443;SDS011;10381;53.730;10.010;2023-10-19T14:13:26;44.05;;;15.70;;
20443;SDS011;10381;53.730;10.010;2023-10-19T14:17:26;31.97;;;14.10;;
20443;SDS011;10381;53.730;10.010;2023-10-19T14:21:26;28.77;;;14.27;;
20443;SDS011;10381;53.730;10.010;2023-10-19T14:25:28;30.70;;;13.23;;
20443;SDS011;10381;53.730;10.010;2023-10-19T14:29:28;35.45;;;14.68;;
20443;SDS011;10381;53.730;10.010;2023-10-19T14:33:30;35.38;;;13.60;;
20443;SDS011;10381;53.730;10.010;2023-10-19T14:37:30;26.33;;;13.57;;
20443;SDS011;10381;53.730;10.010;2023-10-19T14:41:31;37.65;;;14.43;;
20443;SDS011;10381;53.730;10.010;2023-10-19T14:45:31;31.23;;;13.93;;
20443;SDS011;10381;53.730;10.010;2023-10-19T14:49:32;29.30;;;12.73;;
20443;SDS011;10381;53.730;10.010;2023-10-19T14:53:33;31.25;;;14.25;;
20443;SDS011;10381;53.730;10.010;2023-10-19T14:57:33;35.45;;;15.70;;
20443;SDS011;10381;53.730;10.010;2023-10-19T15:01:34;30.00;;;13.15;;
20443;SDS011;10381;53.730;10.010;2023-10-19T15:05:36;25.45;;;14.50;;
20443;SDS011;10381;53.730;10.010;2023-10-19T15:09:37;28.90;;;14.85;;
20443;SDS011;10381;53.730;10.010;2023-10-19T15:13:38;33.78;;;16.13;;
20443;SDS011;10381;53.730;10.010;2023-10-19T15:17:38;27.80;;;14.83;;
20443;SDS011;10381;53.730;10.010;2023-10-19T15:21:40;30.10;;;15.07;;
20443;SDS011;10381;53.730;10.010;2023-10-19T15:25:42;42.95;;;16.45;;
20443;SDS011;10381;53.730;10.010;2023-10-19T15:29:42;32.60;;;17.00;;
20443;SDS011;10381;53.730;10.010;2023-10-19T15:33:42;35.90;;;16.80;;
20443;SDS011;10381;53.730;10.010;2023-10-19T15:37:44;40.17;;;16.50;;
20443;SDS011;10381;53.730;10.010;2023-10-19T15:41:48;33.90;;;17.40;;
20443;SDS011;10381;53.730;10.010;2023-10-19T15:45:48;29.33;;;16.30;;
20443;SDS011;10381;53.730;10.010;2023-10-19T15:49:52;30.35;;;17.50;;
20443;SDS011;10381;53.730;10.010;2023-10-19T15:53:56;32.05;;;16.60;;
20443;SDS011;10381;53.730;10.010;2023-10-19T15:57:58;35.00;;;17.50;;
20443;SDS011;10381;53.730;10.010;2023-10-19T16:01:58;34.20;;;17.63;;
20443;SDS011;10381;53.730;10.010;2023-10-19T16:05:58;33.73;;;17.33;;
20443;SDS011;10381;53.730;10.010;2023-10-19T16:09:59;37.65;;;17.20;;
20443;SDS011;10381;53.730;10.010;2023-10-19T16:13:59;34.57;;;17.43;;
20443;SDS011;10381;53.730;10.010;2023-10-19T16:18:00;41.30;;;18.70;;
20443;SDS011;10381;53.730;10.010;2023-10-19T16:22:01;38.22;;;17.85;;
20443;SDS011;10381;53.730;10.010;2023-10-19T16:26:02;46.25;;;18.75;;
20443;SDS011;10381;53.730;10.010;2023-10-19T16:30:02;34.05;;;18.17;;
20443;SDS011;10381;53.730;10.010;2023-10-19T16:34:04;41.63;;;18.58;;
20443;SDS011;10381;53.730;10.010;2023-10-19T16:38:05;41.80;;;19.80;;
20443;SDS011;10381;53.730;10.010;2023-10-19T16:42:07;43.42;;;18.88;;
20443;SDS011;10381;53.730;10.010;2023-10-19T16:46:08;43.72;;;19.90;;
20443;SDS011;10381;53.730;10.010;2023-10-19T16:50:09;39.58;;;18.67;;
20443;SDS011;10381;53.730;10.010;2023-10-19T16:54:12;40.83;;;19.95;;
20443;SDS011;10381;53.730;10.010;2023-10-19T16:58:15;49.83;;;19.42;;
20443;SDS011;10381;53.730;10.010;2023-10-19T17:02:15;43.72;;;19.75;;
20443;SDS011;10381;53.730;10.010;2023-10-19T17:06:16;45.43;;;18.77;;
20443;SDS011;10381;53.730;10.010;2023-10-19T17:10:16;47.90;;;19.73;;
20443;SDS011;10381;53.730;10.010;2023-10-19T17:14:17;42.92;;;18.90;;
20443;SDS011;10381;53.730;10.010;2023-10-19T17:18:17;37.35;;;18.75;;
20443;SDS011;10381;53.730;10.010;2023-10-19T17:22:19;37.20;;;19.38;;
20443;SDS011;10381;53.730;10.010;2023-10-19T17:26:23;50.47;;;21.85;;
20443;SDS011;10381;53.730;10.010;2023-10-19T17:30:24;49.25;;;20.67;;
20443;SDS011;10381;53.730;10.010;2023-10-19T17:34:24;38.77;;;18.40;;
20443;SDS011;10381;53.730;10.010;2023-10-19T17:38:25;48.07;;;20.87;;
20443;SDS011;10381;53.730;10.010;2023-10-19T17:42:25;48.08;;;20.77;;
20443;SDS011;10381;53.730;10.010;2023-10-19T17:46:27;49.65;;;21.60;;
20443;SDS011;10381;53.730;10.010;2023-10-19T17:50:27;54.70;;;23.03;;
20443;SDS011;10381;53.730;10.010;2023-10-19T17:54:30;48.50;;;20.42;;
20443;SDS011;10381;53.730;10.010;2023-10-19T17:58:30;46.07;;;21.23;;
20443;SDS011;10381;53.730;10.010;2023-10-19T18:02:30;40.93;;;20.47;;
20443;SDS011;10381;53.730;10.010;2023-10-19T18:06:31;41.65;;;20.08;;
20443;SDS011;10381;53.730;10.010;2023-10-19T18:10:33;48.78;;;19.98;;
20443;SDS011;10381;53.730;10.010;2023-10-19T18:14:33;40.95;;;19.90;;
20443;SDS011;10381;53.730;10.010;2023-10-19T18:18:34;37.97;;;18.23;;
20443;SDS011;10381;53.730;10.010;2023-10-19T18:22:35;39.25;;;18.17;;
20443;SDS011;10381;53.730;10.010;2023-10-19T18:26:38;41.47;;;18.35;;
20443;SDS011;10381;53.730;10.010;2023-10-19T18:30:38;45.67;;;19.77;;
20443;SDS011;10381;53.730;10.010;2023-10-19T18:34:39;46.85;;;19.02;;
20443;SDS011;10381;53.730;10.010;2023-10-19T18:38:39;47.33;;;19.90;;
20443;SDS011;10381;53.730;10.010;2023-10-19T18:42:41;41.88;;;20.30;;
20443;SDS011;10381;53.730;10.010;2023-10-19T18:46:41;41.58;;;19.58;;
20443;SDS011;10381;53.730;10.010;2023-10-19T18:50:42;43.40;;;19.60;;
20443;SDS011;10381;53.730;10.010;2023-10-19T18:54:44;46.72;;;20.70;;
20443;SDS011;10381;53.730;10.010;2023-10-19T18:58:45;52.50;;;20.33;;
20443;SDS011;10381;53.730;10.010;2023-10-19T19:02:45;49.97;;;20.00;;
20443;SDS011;10381;53.730;10.010;2023-10-19T19:06:45;42.42;;;20.50;;
20443;SDS011;10381;53.730;10.010;2023-10-19T19:10:46;55.35;;;21.20;;
20443;SDS011;10381;53.730;10.010;2023-10-19T19:14:46;43.17;;;21.03;;
20443;SDS011;10381;53.730;10.010;2023-10-19T19:18:46;39.50;;;19.83;;
20443;SDS011;10381;53.730;10.010;2023-10-19T19:22:47;47.00;;;20.10;;
20443;SDS011;10381;53.730;10.010;2023-10-19T19:26:47;36.08;;;18.98;;
20443;SDS011;10381;53.730;10.010;2023-10-19T19:30:48;40.28;;;19.23;;
20443;SDS011;10381;53.730;10.010;2023-10-19T19:34:48;41.53;;;20.87;;
20443;SDS011;10381;53.730;10.010;2023-10-19T19:38:49;38.83;;;20.37;;
20443;SDS011;10381;53.730;10.010;2023-10-19T19:42:50;33.35;;;17.73;;
20443;SDS011;10381;53.730;10.010;2023-10-19T19:46:51;37.25;;;19.15;;
20443;SDS011;10381;53.730;10.010;2023-10-19T19:50:51;40.77;;;18.60;;
20443;SDS011;10381;53.730;10.010;2023-10-19T19:54:52;31.80;;;16.48;;
20443;SDS011;10381;53.730;10.010;2023-10-19T19:58:53;36.67;;;16.70;;
20443;SDS011;10381;53.730;10.010;2023-10-19T20:02:53;28.98;;;15.05;;
20443;SDS011;10381;53.730;10.010;2023-10-19T20:06:54;29.30;;;16.27;;
20443;SDS011;10381;53.730;10.010;2023-10-19T20:10:54;29.43;;;15.83;;
20443;SDS011;10381;53.730;10.010;2023-10-19T20:14:55;49.20;;;16.83;;
20443;SDS011;10381;53.730;10.010;2023-10-19T20:18:55;30.00;;;14.70;;
20443;SDS011;10381;53.730;10.010;2023-10-19T20:22:57;30.20;;;16.17;;
20443;SDS011;10381;53.730;10.010;2023-10-19T20:26:58;26.45;;;15.23;;
20443;SDS011;10381;53.730;10.010;2023-10-19T20:30:58;27.67;;;14.30;;
20443;SDS011;10381;53.730;10.010;2023-10-19T20:34:59;26.60;;;14.52;;
20443;SDS011;10381;53.730;10.010;2023-10-19T20:38:59;22.67;;;12.43;;
20443;SDS011;10381;53.730;10.010;2023-10-19T20:43:02;22.85;;;12.98;;
20443;SDS011;10381;53.730;10.010;2023-10-19T20:47:04;21.73;;;12.45;;
20443;SDS011;10381;53.730;10.010;2023-10-19T20:51:12;28.48;;;12.32;;
20443;SDS011;10381;53.730;10.010;2023-10-19T20:55:13;24.23;;;13.23;;
20443;SDS011;10381;53.730;10.010;2023-10-19T20:59:14;25.10;;;12.60;;
20443;SDS011;10381;53.730;10.010;2023-10-19T21:03:14;22.37;;;12.07;;
20443;SDS011;10381;53.730;10.010;2023-10-19T21:07:14;22.63;;;10.85;;
20443;SDS011;10381;53.730;10.010;2023-10-19T21:11:15;20.40;;;11.53;;
20443;SDS011;10381;53.730;10.010;2023-10-19T21:15:16;27.77;;;11.98;;
20443;SDS011;10381;53.730;10.010;2023-10-19T21:19:17;23.63;;;11.95;;
20443;SDS011;10381;53.730;10.010;2023-10-19T21:23:17;20.73;;;10.97;;
20443;SDS011;10381;53.730;10.010;2023-10-19T21:27:17;19.87;;;11.43;;
20443;SDS011;10381;53.730;10.010;2023-10-19T21:31:18;19.83;;;10.50;;
20443;SDS011;10381;53.730;10.010;2023-10-19T21:35:18;17.05;;;10.52;;
20443;SDS011;10381;53.730;10.010;2023-10-19T21:39:21;13.98;;;9.75;;
20443;SDS011;10381;53.730;10.010;2023-10-19T21:43:21;14.43;;;9.13;;
20443;SDS011;10381;53.730;10.010;2023-10-19T21:47:22;15.20;;;9.37;;
20443;SDS011;10381;53.730;10.010;2023-10-19T21:51:22;17.58;;;9.40;;
20443;SDS011;10381;53.730;10.010;2023-10-19T21:55:23;16.63;;;10.25;;
20443;SDS011;10381;53.730;10.010;2023-10-19T21:59:24;14.93;;;9.55;;
20443;SDS011;10381;53.730;10.010;2023-10-19T22:03:24;14.43;;;9.23;;
20443;SDS011;10381;53.730;10.010;2023-10-19T22:07:25;14.68;;;9.48;;
20443;SDS011;10381;53.730;10.010;2023-10-19T22:11:25;13.63;;;8.30;;
20443;SDS011;10381;53.730;10.010;2023-10-19T22:15:26;13.07;;;9.10;;
20443;SDS011;10381;53.730;10.010;2023-10-19T22:19:29;15.52;;;9.48;;
20443;SDS011;10381;53.730;10.010;2023-10-19T22:23:29;19.37;;;8.30;;
20443;SDS011;10381;53.730;10.010;2023-10-19T22:27:29;11.18;;;8.60;;
20443;SDS011;10381;53.730;10.010;2023-10-19T22:31:32;13.55;;;8.77;;
20443;SDS011;10381;53.730;10.010;2023-10-19T22:35:34;22.30;;;8.65;;
20443;SDS011;10381;53.730;10.010;2023-10-19T22:39:36;15.80;;;8.60;;
20443;SDS011;10381;53.730;10.010;2023-10-19T22:43:36;12.20;;;8.47;;
20443;SDS011;10381;53.730;10.010;2023-10-19T22:47:37;16.73;;;8.70;;
20443;SDS011;10381;53.730;10.010;2023-10-19T22:51:37;12.27;;;8.70;;
20443;SDS011;10381;53.730;10.010;2023-10-19T22:55:38;16.63;;;8.23;;
20443;SDS011;10381;53.730;10.010;2023-10-19T22:59:38;15.17;;;7.97;;
20443;SDS011;10381;53.730;10.010;2023-10-19T23:03:39;11.85;;;8.20;;
20443;SDS011;10381;53.730;10.010;2023-10-19T23:07:39;7.97;;;6.93;;
20443;SDS011;10381;53.730;10.010;2023-10-19T23:11:42;9.45;;;6.95;;
20443;SDS011;10381;53.730;10.010;2023-10-19T23:15:51;12.35;;;7.03;;
20443;SDS011;10381;53.730;10.010;2023-10-19T23:19:55;12.20;;;7.65;;
20443;SDS011;10381;53.730;10.010;2023-10-19T23:23:57;10.75;;;8.23;;
20443;SDS011;10381;53.730;10.010;2023-10-19T23:27:57;9.50;;;7.43;;